Time;durP1;ratioP1;P1;durP2;ratioP2;P2;SDS_P1;SDS_P2;PMS_P1;PMS_P2;Temp;Humidity;BMP_temperature;BMP_pressure;BME280_temperature;BME280_humidity;BME280_pressure;Samples;Min_cycle;Max_cycle;Signal;HPM_P1;HPM_P2
2023/10/17 00:01:32;;;;;;;10.75;5.72;;;5.10;99.90;;;;;;4971215;28;20077;-72
2023/10/17 00:04:46;;;;;;;10.25;5.68;;;5.00;99.90;;;;;;4968542;28;20027;-72
2023/10/17 00:06:50;;;;;;;10.35;4.63;;;5.00;99.90;;;;;;4967334;28;20065;-72
2023/10/17 00:09:24;;;;;;;11.40;5.90;;;5.00;99.90;;;;;;4973358;28;20022;-72
2023/10/17 00:14:20;;;;;;;12.00;6.30;;;4.90;99.90;;;;;;4969105;28;20062;-72
2023/10/17 00:16:45;;;;;;;11.15;6.13;;;4.90;99.90;;;;;;4968923;28;20937;-73
2023/10/17 00:19:13;;;;;;;10.55;6.20;;;4.90;99.90;;;;;;4968409;28;20074;-72
2023/10/17 00:21:39;;;;;;;12.15;6.13;;;4.80;99.90;;;;;;4968443;28;20034;-73
2023/10/17 00:24:08;;;;;;;11.73;6.75;;;4.80;99.90;;;;;;4953040;28;20085;-73
2023/10/17 00:26:38;;;;;;;9.68;5.78;;;4.80;99.90;;;;;;4970341;28;20031;-73
2023/10/17 00:29:07;;;;;;;10.85;6.20;;;4.80;99.90;;;;;;4952425;28;20027;-73
2023/10/17 00:31:35;;;;;;;9.10;5.22;;;4.80;99.90;;;;;;4969724;28;20042;-73
2023/10/17 00:34:01;;;;;;;9.15;5.50;;;4.80;99.90;;;;;;4970433;28;20508;-72
2023/10/17 00:36:27;;;;;;;8.73;5.32;;;4.70;99.90;;;;;;4969999;28;20073;-73
2023/10/17 00:38:54;;;;;;;8.93;5.28;;;4.80;99.90;;;;;;4965208;28;20019;-72
2023/10/17 00:41:35;;;;;;;11.60;6.07;;;4.70;99.90;;;;;;4969338;28;20062;-72
2023/10/17 00:44:00;;;;;;;10.70;5.95;;;4.70;99.90;;;;;;4968173;28;20489;-72
2023/10/17 00:46:26;;;;;;;9.77;5.28;;;4.60;99.90;;;;;;4965751;28;20057;-72
2023/10/17 00:48:56;;;;;;;10.07;5.65;;;4.60;99.90;;;;;;4969324;28;20089;-72
2023/10/17 00:51:22;;;;;;;10.80;5.90;;;4.50;99.90;;;;;;4968669;28;20106;-72
2023/10/17 00:53:49;;;;;;;10.63;5.93;;;4.50;99.90;;;;;;4968807;28;20031;-72
2023/10/17 00:56:15;;;;;;;9.85;4.90;;;4.40;99.90;;;;;;4968005;28;20422;-72
2023/10/17 00:58:44;;;;;;;11.90;4.85;;;4.40;99.90;;;;;;4949046;28;20031;-72
2023/10/17 01:01:09;;;;;;;10.90;5.85;;;4.30;99.90;;;;;;4969484;28;20114;-72
2023/10/17 01:03:43;;;;;;;9.15;6.00;;;4.30;99.90;;;;;;4969537;28;20452;-72
2023/10/17 01:06:13;;;;;;;12.00;5.45;;;4.30;99.90;;;;;;4969834;28;20035;-72
2023/10/17 01:08:44;;;;;;;9.60;5.45;;;4.20;99.90;;;;;;4968903;28;20023;-73
2023/10/17 01:11:20;;;;;;;13.77;5.70;;;4.30;99.90;;;;;;4970140;28;20037;-72
2023/10/17 01:13:52;;;;;;;10.70;6.05;;;4.20;99.90;;;;;;4966894;28;20021;-72
2023/10/17 01:16:24;;;;;;;8.48;5.10;;;4.20;99.90;;;;;;4953437;28;20089;-73
2023/10/17 01:18:50;;;;;;;11.38;6.18;;;4.10;99.90;;;;;;4969581;28;20548;-72
2023/10/17 01:21:19;;;;;;;13.40;6.57;;;4.10;99.90;;;;;;4969682;28;20062;-72
2023/10/17 01:23:45;;;;;;;11.52;6.30;;;4.10;99.90;;;;;;4951033;28;21429;-72
2023/10/17 01:26:14;;;;;;;12.52;7.05;;;4.10;99.90;;;;;;4969465;28;20054;-72
2023/10/17 01:28:45;;;;;;;12.13;6.65;;;4.20;99.90;;;;;;4966024;28;20106;-72
2023/10/17 01:31:14;;;;;;;10.32;6.40;;;4.20;99.90;;;;;;4968526;28;20437;-72
2023/10/17 01:33:42;;;;;;;11.73;6.78;;;4.20;99.90;;;;;;4970192;28;20018;-72
2023/10/17 01:36:09;;;;;;;12.30;6.68;;;4.20;99.90;;;;;;4969579;28;20033;-72
2023/10/17 01:38:35;;;;;;;11.35;6.80;;;4.20;99.90;;;;;;4967200;28;20029;-72
2023/10/17 01:41:01;;;;;;;13.38;7.13;;;4.20;99.90;;;;;;4949888;28;20125;-72
2023/10/17 01:43:45;;;;;;;15.60;7.25;;;4.10;99.90;;;;;;4967369;28;20023;-72
2023/10/17 01:46:15;;;;;;;;;;;4.20;99.90;;;;;;4971035;28;20042;-72
2023/10/17 01:48:47;;;;;;;8.80;5.00;;;4.20;99.90;;;;;;4967942;28;19930;-72
2023/10/17 01:51:13;;;;;;;14.65;6.88;;;4.10;99.90;;;;;;4964353;28;20062;-72
2023/10/17 01:53:39;;;;;;;11.38;5.57;;;4.10;99.90;;;;;;4968520;28;20058;-73
2023/10/17 01:56:14;;;;;;;12.10;6.00;;;4.10;99.90;;;;;;4952614;28;20023;-73
2023/10/17 01:58:48;;;;;;;9.85;5.47;;;4.00;99.90;;;;;;4969420;28;20425;-73
2023/10/17 02:01:17;;;;;;;;;;;3.90;99.90;;;;;;4972534;28;20109;-73
2023/10/17 02:03:46;;;;;;;10.35;5.10;;;4.00;99.90;;;;;;4969923;28;19909;-73
2023/10/17 02:06:16;;;;;;;11.35;6.32;;;4.00;99.90;;;;;;4970245;28;20217;-73
2023/10/17 02:08:46;;;;;;;11.43;6.15;;;4.10;99.90;;;;;;4967982;28;20026;-73
2023/10/17 02:11:25;;;;;;;9.10;5.43;;;4.00;99.90;;;;;;4971362;28;20023;-73
2023/10/17 02:13:58;;;;;;;11.05;5.32;;;4.10;99.90;;;;;;4974147;28;20022;-73
2023/10/17 02:16:24;;;;;;;;;;;4.00;99.90;;;;;;4973588;28;20042;-73
2023/10/17 02:18:51;;;;;;;9.02;5.15;;;3.90;99.90;;;;;;4970933;28;19914;-73
2023/10/17 02:21:21;;;;;;;10.30;5.88;;;3.90;99.90;;;;;;4972443;28;20035;-73
2023/10/17 02:23:49;;;;;;;10.73;6.07;;;3.90;99.90;;;;;;4971503;28;20030;-73
2023/10/17 02:26:21;;;;;;;8.93;5.40;;;3.90;99.90;;;;;;4958313;28;20037;-73
2023/10/17 02:28:53;;;;;;;9.30;5.68;;;3.90;99.90;;;;;;4972913;28;20037;-73
2023/10/17 02:31:29;;;;;;;9.93;5.43;;;3.80;99.90;;;;;;4957018;28;20038;-73
2023/10/17 02:33:58;;;;;;;9.57;6.20;;;3.80;99.90;;;;;;4971861;28;20030;-73
2023/10/17 02:36:24;;;;;;;8.63;5.55;;;3.80;99.90;;;;;;4972115;28;20054;-73
2023/10/17 02:38:50;;;;;;;12.73;6.10;;;3.80;99.90;;;;;;4973638;28;20508;-73
2023/10/17 02:41:19;;;;;;;11.23;6.28;;;3.80;99.90;;;;;;4972255;28;20050;-73
2023/10/17 02:43:46;;;;;;;9.55;5.88;;;3.80;99.90;;;;;;4973535;28;20050;-72
2023/10/17 02:46:14;;;;;;;8.73;5.20;;;3.80;99.90;;;;;;4973879;28;20474;-72
2023/10/17 02:48:40;;;;;;;13.90;7.47;;;3.80;99.90;;;;;;4971322;28;20015;-72
2023/10/17 02:51:54;;;;;;;9.50;5.32;;;3.80;99.90;;;;;;4950724;28;20051;-71
2023/10/17 02:53:56;;;;;;;13.15;5.88;;;3.80;99.90;;;;;;4961713;28;20053;-71
2023/10/17 02:56:23;;;;;;;11.60;5.60;;;3.80;99.90;;;;;;4964103;28;20035;-71
2023/10/17 03:01:36;;;;;;;11.50;5.30;;;3.80;99.90;;;;;;4972978;28;20022;-72
2023/10/17 03:04:09;;;;;;;9.88;5.70;;;3.80;99.90;;;;;;4969977;28;20031;-72
2023/10/17 03:06:40;;;;;;;9.30;5.50;;;3.80;99.90;;;;;;4972825;28;20018;-72
2023/10/17 03:17:04;;;;;;;9.23;5.43;;;3.70;99.90;;;;;;4968434;28;20027;-72
2023/10/17 03:19:32;;;;;;;9.75;5.25;;;3.60;99.90;;;;;;4955350;28;20027;-72
2023/10/17 03:24:45;;;;;;;9.45;5.20;;;3.60;99.90;;;;;;4970438;28;20095;-72
2023/10/17 03:27:23;;;;;;;10.77;5.38;;;3.50;99.90;;;;;;4969908;28;20038;-73
2023/10/17 03:29:48;;;;;;;8.07;4.70;;;3.50;99.90;;;;;;4973436;28;20030;-73
2023/10/17 03:32:15;;;;;;;10.70;5.43;;;3.50;99.90;;;;;;4966867;28;20033;-73
2023/10/17 03:34:45;;;;;;;8.52;5.45;;;3.40;99.90;;;;;;4969331;28;20015;-73
2023/10/17 03:39:53;;;;;;;9.05;4.68;;;3.40;99.90;;;;;;4969497;28;20520;-73
2023/10/17 03:45:23;;;;;;;11.70;5.70;;;3.40;99.90;;;;;;4902243;28;20048;-73
2023/10/17 03:48:04;;;;;;;9.77;5.43;;;3.40;99.90;;;;;;4967573;28;20018;-73
2023/10/17 03:50:48;;;;;;;10.20;5.57;;;3.40;99.90;;;;;;4968901;28;20026;-73
2023/10/17 03:53:29;;;;;;;;;;;3.40;99.90;;;;;;4972069;28;20473;-73
2023/10/17 03:56:00;;;;;;;7.82;5.45;;;3.40;99.90;;;;;;4953088;28;19929;-73
2023/10/17 04:00:53;;;;;;;11.82;5.85;;;3.50;99.90;;;;;;4970392;28;20027;-72
2023/10/17 04:03:26;;;;;;;7.97;5.25;;;3.50;99.90;;;;;;4945590;28;20047;-73
2023/10/17 04:06:18;;;;;;;11.27;6.38;;;3.50;99.90;;;;;;4955899;28;20026;-73
2023/10/17 04:08:48;;;;;;;10.05;5.53;;;3.60;99.90;;;;;;4971776;28;20034;-73
2023/10/17 04:13:51;;;;;;;7.68;4.93;;;3.60;99.90;;;;;;4972227;28;20031;-73
2023/10/17 04:16:22;;;;;;;8.38;5.30;;;3.60;99.90;;;;;;4966352;28;20548;-73
2023/10/17 04:21:45;;;;;;;11.38;6.15;;;3.60;99.90;;;;;;4968706;28;20037;-73
2023/10/17 04:24:13;;;;;;;11.38;6.05;;;3.60;99.90;;;;;;4968999;28;20018;-73
2023/10/17 04:26:45;;;;;;;12.48;6.20;;;3.60;99.90;;;;;;4966690;28;20020;-74
2023/10/17 04:29:18;;;;;;;12.20;6.60;;;3.60;99.90;;;;;;4956702;28;20077;-73
2023/10/17 04:31:44;;;;;;;11.27;5.95;;;3.60;99.90;;;;;;4967132;28;20429;-73
2023/10/17 04:34:21;;;;;;;10.68;5.80;;;3.60;99.90;;;;;;4962607;28;20149;-72
2023/10/17 04:36:51;;;;;;;10.60;5.30;;;3.60;99.90;;;;;;4964734;28;20054;-73
2023/10/17 04:44:32;;;;;;;10.38;5.63;;;3.70;99.90;;;;;;4967696;28;20109;-73
2023/10/17 04:49:35;;;;;;;10.68;6.22;;;3.70;99.90;;;;;;4963858;28;20106;-73
2023/10/17 04:52:18;;;;;;;11.27;5.75;;;3.70;99.90;;;;;;4968210;28;20023;-74
2023/10/17 04:54:44;;;;;;;10.82;5.88;;;3.70;99.90;;;;;;4949335;28;20030;-71
2023/10/17 04:57:16;;;;;;;13.82;6.30;;;3.70;99.90;;;;;;4965593;28;20019;-71
2023/10/17 06:18:52;;;;;;;24.15;11.20;;;3.90;99.90;;;;;;4967763;28;19965;-74
2023/10/17 06:21:19;;;;;;;25.88;12.43;;;4.00;99.90;;;;;;4960138;28;20086;-74
2023/10/17 06:34:19;;;;;;;28.42;13.52;;;4.40;99.90;;;;;;4965338;28;20397;-73
2023/10/17 06:36:49;;;;;;;26.38;13.80;;;4.50;99.90;;;;;;4967427;28;20066;-73
2023/10/17 06:39:18;;;;;;;28.55;14.52;;;4.50;99.90;;;;;;4963911;28;20062;-74
2023/10/17 06:41:46;;;;;;;24.73;14.50;;;4.60;99.90;;;;;;4961327;28;20046;-73
2023/10/17 06:44:21;;;;;;;23.75;13.45;;;4.70;99.90;;;;;;4966336;28;20450;-73
2023/10/17 06:46:55;;;;;;;25.55;13.50;;;4.70;99.90;;;;;;4970491;28;20118;-73
2023/10/17 06:52:19;;;;;;;23.33;13.00;;;4.80;99.90;;;;;;4966029;28;20694;-73
2023/10/17 06:54:52;;;;;;;20.52;11.55;;;4.90;99.90;;;;;;4968895;28;20041;-73
2023/10/17 06:57:33;;;;;;;17.50;9.93;;;5.00;99.90;;;;;;4968754;28;20030;-74
2023/10/17 07:00:15;;;;;;;23.90;9.63;;;4.90;99.90;;;;;;4966557;28;20041;-73
2023/10/17 07:02:48;;;;;;;18.45;9.60;;;4.90;99.90;;;;;;4970447;28;20074;-73
2023/10/17 07:05:22;;;;;;;19.98;9.60;;;4.90;99.90;;;;;;4965994;28;20019;-73
2023/10/17 07:07:54;;;;;;;20.38;9.07;;;4.90;99.90;;;;;;4970866;28;20397;-73
2023/10/17 07:13:27;;;;;;;17.02;9.05;;;4.90;99.90;;;;;;4970589;28;20145;-73
2023/10/17 07:15:54;;;;;;;21.90;9.33;;;4.80;99.90;;;;;;4967528;28;20167;-73
2023/10/17 07:23:44;;;;;;;16.92;8.30;;;4.70;99.90;;;;;;4965727;28;20019;-73
2023/10/17 07:26:58;;;;;;;17.88;8.20;;;4.70;99.90;;;;;;4965007;28;20094;-73
2023/10/17 07:28:57;;;;;;;13.25;7.28;;;4.70;99.90;;;;;;4963842;28;20039;-73
2023/10/17 07:31:23;;;;;;;15.23;8.07;;;4.60;99.90;;;;;;4953525;28;20113;-73
2023/10/17 07:34:06;;;;;;;12.25;7.40;;;4.70;99.90;;;;;;4966971;28;20066;-73
2023/10/17 07:36:34;;;;;;;11.77;6.93;;;4.70;99.90;;;;;;4967916;28;20039;-72
2023/10/17 07:39:07;;;;;;;16.00;7.55;;;4.70;99.90;;;;;;4968278;28;20027;-73
2023/10/17 07:41:36;;;;;;;17.70;8.05;;;4.70;99.90;;;;;;4967974;28;20504;-72
2023/10/17 07:44:19;;;;;;;12.80;6.93;;;4.70;99.90;;;;;;4965438;28;20114;-73
2023/10/17 07:46:48;;;;;;;25.83;12.00;;;4.80;99.90;;;;;;4967599;28;20023;-72
2023/10/17 07:49:16;;;;;;;18.02;9.70;;;4.80;99.90;;;;;;4968761;28;20023;-73
2023/10/17 07:51:42;;;;;;;14.90;8.32;;;4.80;99.90;;;;;;4967758;28;20030;-72
2023/10/17 07:54:08;;;;;;;15.00;8.25;;;5.00;99.90;;;;;;4964483;28;20026;-73
2023/10/17 07:56:34;;;;;;;13.32;7.68;;;5.00;99.90;;;;;;4949412;28;20177;-73
2023/10/17 07:59:08;;;;;;;13.55;7.10;;;5.10;99.90;;;;;;4949359;28;20039;-73
2023/10/17 08:01:43;;;;;;;;;;;5.20;99.90;;;;;;4949755;28;20118;-73
2023/10/17 08:04:53;;;;;;;12.55;7.55;;;5.30;99.90;;;;;;4968144;28;19917;-73
2023/10/17 08:06:58;;;;;;;16.35;7.75;;;5.40;99.90;;;;;;4963845;28;20561;-73
2023/10/17 08:09:24;;;;;;;15.93;8.90;;;5.50;99.90;;;;;;4966948;28;20030;-73
2023/10/17 08:11:54;;;;;;;15.05;9.13;;;5.60;99.90;;;;;;4971162;28;20054;-73
2023/10/17 08:14:27;;;;;;;16.30;8.55;;;5.70;99.90;;;;;;4967527;28;20023;-72
2023/10/17 08:16:55;;;;;;;14.70;8.18;;;5.80;99.90;;;;;;4967664;28;20030;-72
2023/10/17 08:19:29;;;;;;;16.63;8.75;;;5.80;99.90;;;;;;4951719;28;20046;-73
2023/10/17 08:24:34;;;;;;;19.60;10.20;;;6.00;99.90;;;;;;4964282;28;20051;-74
2023/10/17 08:27:13;;;;;;;19.42;10.85;;;6.00;99.90;;;;;;4959401;28;20046;-72
2023/10/17 08:30:23;;;;;;;23.05;10.93;;;6.10;99.90;;;;;;4965673;28;20025;-72
2023/10/17 08:32:39;;;;;;;14.65;8.57;;;6.20;99.90;;;;;;4961993;28;20457;-73
2023/10/17 08:35:19;;;;;;;18.75;10.35;;;6.30;99.90;;;;;;4968020;28;20649;-73
2023/10/17 08:37:45;;;;;;;21.10;9.73;;;6.40;99.90;;;;;;4964627;28;20034;-73
2023/10/17 08:43:00;;;;;;;16.58;10.00;;;6.50;99.90;;;;;;4969700;28;20054;-73
2023/10/17 08:45:27;;;;;;;17.10;9.75;;;6.60;99.90;;;;;;4966533;28;20034;-73
2023/10/17 08:48:01;;;;;;;17.58;11.00;;;6.60;99.90;;;;;;4965429;28;20034;-74
2023/10/17 08:50:31;;;;;;;18.83;10.20;;;6.70;99.90;;;;;;4966817;28;20026;-73
2023/10/17 08:52:59;;;;;;;22.05;11.90;;;6.70;99.90;;;;;;4967246;28;20054;-73
2023/10/17 08:55:27;;;;;;;23.10;12.38;;;6.80;99.90;;;;;;4964394;28;20425;-74
2023/10/17 08:57:52;;;;;;;20.50;11.10;;;6.90;99.90;;;;;;4967240;28;20106;-73
2023/10/17 09:00:24;;;;;;;21.15;11.45;;;6.90;99.90;;;;;;4968367;28;20505;-73
2023/10/17 09:03:02;;;;;;;21.20;10.02;;;7.00;99.90;;;;;;4965180;28;20029;-73
2023/10/17 09:05:29;;;;;;;18.58;10.68;;;7.00;99.90;;;;;;4968883;28;20105;-73
2023/10/17 09:07:58;;;;;;;19.08;10.85;;;7.10;99.90;;;;;;4968019;28;20474;-73
2023/10/17 09:10:38;;;;;;;18.00;11.30;;;7.10;99.90;;;;;;4967265;28;20027;-73
2023/10/17 09:13:43;;;;;;;19.70;11.80;;;7.20;99.90;;;;;;4949241;28;20394;-73
2023/10/17 09:16:10;;;;;;;16.50;10.48;;;7.30;99.90;;;;;;4966202;28;20098;-73
2023/10/17 09:18:42;;;;;;;23.23;11.25;;;7.40;99.90;;;;;;4965650;28;20038;-73
2023/10/17 09:21:08;;;;;;;24.65;11.82;;;7.40;99.90;;;;;;4949531;28;20383;-73
2023/10/17 09:23:38;;;;;;;21.30;11.63;;;7.50;99.90;;;;;;4966273;28;20015;-73
2023/10/17 09:26:10;;;;;;;21.75;11.85;;;7.60;99.90;;;;;;4966381;28;20117;-73
2023/10/17 09:28:39;;;;;;;19.92;10.90;;;7.60;99.90;;;;;;4953849;28;20058;-75
2023/10/17 09:31:12;;;;;;;23.30;11.43;;;7.60;99.90;;;;;;4963691;28;20502;-74
2023/10/17 09:33:44;;;;;;;20.25;11.13;;;7.60;99.90;;;;;;4965957;28;20066;-75
2023/10/17 09:36:12;;;;;;;19.35;10.68;;;7.60;99.90;;;;;;4963185;28;20024;-74
2023/10/17 09:38:45;;;;;;;20.20;10.52;;;7.60;99.90;;;;;;4955225;28;20039;-74
2023/10/17 09:41:17;;;;;;;17.70;11.40;;;7.70;99.90;;;;;;4961554;28;20422;-74
2023/10/17 09:43:46;;;;;;;16.30;10.82;;;7.70;99.90;;;;;;4964363;28;20034;-75
2023/10/17 09:46:13;;;;;;;20.73;11.20;;;7.80;99.90;;;;;;4967128;28;20030;-76
2023/10/17 09:48:43;;;;;;;19.20;11.65;;;7.80;99.90;;;;;;4966174;28;20023;-75
2023/10/17 09:51:21;;;;;;;21.00;11.52;;;7.90;99.90;;;;;;4963745;28;20082;-75
2023/10/17 09:53:58;;;;;;;16.08;9.82;;;7.90;99.90;;;;;;4965802;28;21359;-75
2023/10/17 09:56:30;;;;;;;23.02;11.77;;;8.10;99.90;;;;;;4965504;28;20054;-75
2023/10/17 09:59:03;;;;;;;17.15;10.30;;;8.10;99.90;;;;;;4950288;28;20117;-74
2023/10/17 10:01:31;;;;;;;16.92;10.65;;;8.20;99.90;;;;;;4967442;28;20043;-75
2023/10/17 10:04:01;;;;;;;20.00;10.85;;;8.20;99.90;;;;;;4948497;28;20068;-75
2023/10/17 10:06:31;;;;;;;18.60;9.57;;;8.20;99.90;;;;;;4963424;28;20363;-75
2023/10/17 10:09:06;;;;;;;17.77;10.50;;;8.20;99.90;;;;;;4963560;28;20029;-74
2023/10/17 10:11:53;;;;;;;18.83;10.82;;;8.20;99.90;;;;;;4960956;28;20377;-75
2023/10/17 10:14:27;;;;;;;19.08;10.35;;;8.30;99.90;;;;;;4960446;28;20121;-74
2023/10/17 10:17:00;;;;;;;19.20;11.15;;;8.40;99.90;;;;;;4964317;28;20030;-74
2023/10/17 10:19:46;;;;;;;19.83;11.50;;;8.40;99.90;;;;;;4966043;28;20466;-74
2023/10/17 10:22:16;;;;;;;15.35;8.93;;;8.50;99.90;;;;;;4953438;28;20485;-74
2023/10/17 10:24:46;;;;;;;17.63;10.90;;;8.60;99.90;;;;;;4970540;28;20085;-75
2023/10/17 10:27:14;;;;;;;17.38;10.52;;;8.70;99.90;;;;;;4969356;28;20022;-74
2023/10/17 10:29:43;;;;;;;18.33;10.75;;;8.70;99.90;;;;;;4965771;28;20528;-74
2023/10/17 10:32:29;;;;;;;18.42;10.65;;;8.90;99.90;;;;;;4966991;28;20053;-74
2023/10/17 10:34:55;;;;;;;17.45;9.95;;;8.90;99.90;;;;;;4946646;28;20027;-73
2023/10/17 10:37:21;;;;;;;19.83;10.80;;;9.00;99.90;;;;;;4968857;28;20389;-74
2023/10/17 10:40:11;;;;;;;17.00;10.68;;;9.10;99.90;;;;;;4968352;28;20331;-74
2023/10/17 10:42:51;;;;;;;16.88;9.80;;;9.10;99.90;;;;;;4966721;28;20043;-74
2023/10/17 10:45:28;;;;;;;19.15;10.23;;;9.20;99.90;;;;;;4965269;28;20101;-74
2023/10/17 10:48:04;;;;;;;19.70;11.60;;;9.30;99.90;;;;;;4964252;28;20488;-74
2023/10/17 10:50:32;;;;;;;16.92;11.02;;;9.40;99.90;;;;;;4966586;28;20022;-75
2023/10/17 10:53:00;;;;;;;18.52;10.57;;;9.50;99.90;;;;;;4963068;28;20550;-74
2023/10/17 10:55:27;;;;;;;17.27;10.40;;;9.60;99.90;;;;;;4963848;28;20023;-74
2023/10/17 10:57:54;;;;;;;19.73;10.63;;;9.70;99.90;;;;;;4965467;28;20062;-74
2023/10/17 11:00:20;;;;;;;15.82;10.32;;;9.80;99.90;;;;;;4963266;28;20030;-74
2023/10/17 11:02:46;;;;;;;18.90;10.98;;;9.90;99.90;;;;;;4965685;28;20034;-74
2023/10/17 11:05:15;;;;;;;17.23;9.93;;;10.00;99.90;;;;;;4963989;28;20481;-74
2023/10/17 11:07:42;;;;;;;18.15;9.85;;;10.10;99.90;;;;;;4951735;28;20034;-74
2023/10/17 11:10:10;;;;;;;15.95;10.07;;;10.20;99.90;;;;;;4966781;28;20033;-75
2023/10/17 11:12:38;;;;;;;16.52;10.23;;;10.40;99.90;;;;;;4961879;28;20027;-74
2023/10/17 11:15:19;;;;;;;16.23;9.70;;;10.50;99.90;;;;;;4963396;28;20030;-75
2023/10/17 11:17:45;;;;;;;18.83;10.93;;;10.50;99.90;;;;;;4971390;28;20023;-74
2023/10/17 11:20:17;;;;;;;17.48;9.40;;;10.60;99.90;;;;;;4952091;28;20031;-75
2023/10/17 11:22:44;;;;;;;14.88;9.02;;;10.60;99.90;;;;;;4960043;28;20172;-74
2023/10/17 11:25:13;;;;;;;19.08;10.02;;;10.60;99.90;;;;;;4962966;28;20500;-74
2023/10/17 11:27:53;;;;;;;16.05;9.75;;;10.70;99.90;;;;;;4967678;28;20038;-74
2023/10/17 11:30:20;;;;;;;16.42;9.27;;;10.80;99.90;;;;;;4966674;28;20069;-75
2023/10/17 11:32:47;;;;;;;15.27;7.97;;;10.80;99.90;;;;;;4964533;28;20042;-74
2023/10/17 11:35:29;;;;;;;13.40;8.23;;;10.80;99.90;;;;;;4964363;28;20093;-74
2023/10/17 11:37:56;;;;;;;14.82;9.02;;;10.80;99.90;;;;;;4945246;28;20453;-74
2023/10/17 11:40:38;;;;;;;14.32;9.15;;;10.80;99.90;;;;;;4963486;28;20204;-74
2023/10/17 11:43:21;;;;;;;18.15;9.27;;;10.80;99.90;;;;;;4952064;28;20023;-74
2023/10/17 11:45:47;;;;;;;14.13;8.27;;;10.80;99.90;;;;;;4970838;28;20058;-75
2023/10/17 11:48:39;;;;;;;12.98;7.43;;;10.80;99.90;;;;;;4968721;28;20077;-74
2023/10/17 11:51:18;;;;;;;12.95;8.27;;;10.80;99.90;;;;;;4970836;28;20027;-74
2023/10/17 11:54:09;;;;;;;12.80;8.07;;;10.90;99.90;;;;;;4967359;28;20031;-76
2023/10/17 11:56:41;;;;;;;11.82;7.47;;;10.90;99.90;;;;;;4968327;28;20122;-74
2023/10/17 11:59:09;;;;;;;15.55;9.05;;;10.80;99.90;;;;;;4961746;28;20035;-75
2023/10/17 12:01:36;;;;;;;15.15;9.32;;;10.80;99.90;;;;;;4963124;28;20027;-74
2023/10/17 12:04:06;;;;;;;14.18;8.10;;;10.90;99.90;;;;;;4963952;28;20631;-75
2023/10/17 12:06:34;;;;;;;15.60;8.57;;;10.90;99.90;;;;;;4964481;28;20762;-73
2023/10/17 12:09:17;;;;;;;16.52;9.00;;;10.90;99.90;;;;;;4968206;28;20654;-73
2023/10/17 12:11:46;;;;;;;15.70;9.13;;;10.90;99.90;;;;;;4966106;28;20113;-73
2023/10/17 12:14:19;;;;;;;13.75;8.82;;;11.00;99.90;;;;;;4968183;28;20031;-72
2023/10/17 12:16:49;;;;;;;20.02;10.60;;;10.90;99.90;;;;;;4964688;28;20057;-72
2023/10/17 12:19:18;;;;;;;19.17;10.02;;;10.90;99.90;;;;;;4969317;28;20034;-73
2023/10/17 12:21:48;;;;;;;14.63;9.63;;;11.00;99.90;;;;;;4963781;28;20395;-73
2023/10/17 12:24:24;;;;;;;17.27;9.65;;;11.00;99.90;;;;;;4965909;28;20019;-73
2023/10/17 12:26:50;;;;;;;18.40;9.77;;;11.10;99.90;;;;;;4954394;28;20081;-74
2023/10/17 12:29:19;;;;;;;13.65;9.40;;;11.00;99.90;;;;;;4953939;28;20023;-73
2023/10/17 12:31:46;;;;;;;18.13;10.93;;;11.00;99.90;;;;;;4964158;28;20038;-73
2023/10/17 12:34:15;;;;;;;16.85;11.18;;;11.00;99.90;;;;;;4969705;28;20100;-72
2023/10/17 12:36:41;;;;;;;16.95;10.57;;;11.00;99.90;;;;;;4968150;28;20030;-72
2023/10/17 12:39:08;;;;;;;17.90;10.55;;;11.00;99.90;;;;;;4967423;28;20030;-71
2023/10/17 12:41:36;;;;;;;16.48;10.82;;;11.00;99.90;;;;;;4966862;28;20070;-71
2023/10/17 12:44:03;;;;;;;16.90;10.85;;;11.00;99.90;;;;;;4963586;28;20031;-74
2023/10/17 12:46:30;;;;;;;15.20;10.10;;;11.00;99.90;;;;;;4964592;28;20438;-74
2023/10/17 12:48:56;;;;;;;16.77;9.93;;;11.00;99.90;;;;;;4968986;28;20482;-74
2023/10/17 12:51:23;;;;;;;17.10;10.52;;;11.10;99.90;;;;;;4949156;28;20089;-71
2023/10/17 12:53:49;;;;;;;18.83;11.48;;;11.10;99.90;;;;;;4967116;28;20037;-74
2023/10/17 12:56:17;;;;;;;19.00;10.90;;;11.20;99.90;;;;;;4964112;28;20042;-75
2023/10/17 12:58:43;;;;;;;16.58;10.32;;;11.20;99.90;;;;;;4951151;28;20031;-73
2023/10/17 13:01:11;;;;;;;20.13;10.90;;;11.30;99.90;;;;;;4962364;28;20042;-73
2023/10/17 13:03:38;;;;;;;17.95;10.35;;;11.30;99.90;;;;;;4963205;28;20029;-73
2023/10/17 13:06:04;;;;;;;17.73;10.38;;;11.30;99.90;;;;;;4963202;28;20038;-72
2023/10/17 13:08:31;;;;;;;17.58;10.52;;;11.40;99.90;;;;;;4961619;28;20105;-73
2023/10/17 13:10:57;;;;;;;18.13;10.45;;;11.40;99.90;;;;;;4953994;28;20034;-73
2023/10/17 13:13:23;;;;;;;22.38;11.15;;;11.50;99.90;;;;;;4967362;28;20401;-73
2023/10/17 13:15:49;;;;;;;21.77;10.40;;;11.60;99.90;;;;;;4950132;28;20143;-73
2023/10/17 13:18:16;;;;;;;17.70;10.80;;;11.60;99.90;;;;;;4960925;28;20058;-73
2023/10/17 13:20:53;;;;;;;18.77;11.00;;;11.70;99.90;;;;;;4965656;28;20030;-74
2023/10/17 13:23:20;;;;;;;18.13;10.43;;;11.70;99.90;;;;;;4965501;28;20023;-72
2023/10/17 13:25:46;;;;;;;17.35;10.75;;;11.70;99.90;;;;;;4968296;28;20986;-75
2023/10/17 13:28:11;;;;;;;20.33;11.55;;;11.80;99.90;;;;;;4966201;28;20042;-74
2023/10/17 13:30:37;;;;;;;17.00;10.60;;;11.80;99.90;;;;;;4966832;28;20042;-73
2023/10/17 13:33:03;;;;;;;16.23;11.45;;;11.90;99.90;;;;;;4968156;28;20117;-73
2023/10/17 13:35:30;;;;;;;15.52;10.23;;;11.90;99.90;;;;;;4965072;28;20031;-74
2023/10/17 13:37:58;;;;;;;17.50;10.13;;;11.90;99.90;;;;;;4965699;28;20026;-74
2023/10/17 13:40:25;;;;;;;18.10;10.25;;;11.90;99.90;;;;;;4965033;28;20033;-73
2023/10/17 13:42:52;;;;;;;16.50;9.82;;;11.90;99.90;;;;;;4966029;28;20031;-73
2023/10/17 13:45:22;;;;;;;16.48;10.25;;;11.90;99.90;;;;;;4966307;28;20019;-74
2023/10/17 13:47:52;;;;;;;17.50;10.30;;;11.90;99.90;;;;;;4962322;28;20030;-74
2023/10/17 13:50:19;;;;;;;15.10;9.73;;;11.90;99.90;;;;;;4964390;28;20030;-74
2023/10/17 13:52:46;;;;;;;16.55;11.32;;;12.00;99.90;;;;;;4966529;28;20509;-73
2023/10/17 13:55:14;;;;;;;17.40;10.15;;;12.00;99.90;;;;;;4962632;28;20057;-73
2023/10/17 13:57:46;;;;;;;16.98;10.40;;;12.00;99.90;;;;;;4955837;28;21044;-74
2023/10/17 14:00:19;;;;;;;21.60;10.75;;;12.00;99.90;;;;;;4969310;28;20030;-72
2023/10/17 14:02:47;;;;;;;15.65;9.95;;;12.10;99.90;;;;;;4969643;28;20065;-72
2023/10/17 14:05:13;;;;;;;15.27;9.80;;;12.10;99.90;;;;;;4967603;28;20873;-73
2023/10/17 14:07:39;;;;;;;15.05;10.00;;;12.10;99.90;;;;;;4969601;28;20110;-73
2023/10/17 14:10:09;;;;;;;15.60;10.57;;;12.10;99.90;;;;;;4970441;28;20117;-73
2023/10/17 14:12:40;;;;;;;14.68;10.35;;;12.10;99.90;;;;;;4955864;28;20394;-73
2023/10/17 14:15:08;;;;;;;14.75;9.48;;;12.10;99.90;;;;;;4968140;28;20066;-73
2023/10/17 14:17:35;;;;;;;15.45;9.80;;;12.20;99.90;;;;;;4971772;28;20031;-72
2023/10/17 14:20:16;;;;;;;20.60;10.00;;;12.20;99.90;;;;;;4968739;28;20066;-73
2023/10/17 14:22:56;;;;;;;15.88;10.02;;;12.20;99.90;;;;;;4955300;28;20027;-73
2023/10/17 14:26:00;;;;;;;17.38;9.77;;;12.20;99.90;;;;;;4970833;28;20363;-73
2023/10/17 14:28:08;;;;;;;17.40;9.35;;;12.20;99.90;;;;;;4970692;28;20035;-74
2023/10/17 14:30:37;;;;;;;14.82;9.43;;;12.30;99.90;;;;;;4973110;28;20027;-72
2023/10/17 14:33:03;;;;;;;16.83;9.98;;;12.30;99.90;;;;;;4967591;28;20023;-73
2023/10/17 14:35:33;;;;;;;16.42;8.93;;;12.20;99.90;;;;;;4969346;28;20038;-72
2023/10/17 14:38:00;;;;;;;14.25;8.40;;;12.20;99.90;;;;;;4964953;28;20550;-73
2023/10/17 14:40:31;;;;;;;17.63;9.60;;;12.20;99.90;;;;;;4970697;28;20338;-73
2023/10/17 14:42:57;;;;;;;12.60;8.95;;;12.20;99.90;;;;;;4970595;28;20435;-72
2023/10/17 14:45:28;;;;;;;15.43;8.70;;;12.20;99.90;;;;;;4970201;28;20026;-72
2023/10/17 14:47:58;;;;;;;11.85;8.48;;;12.10;99.90;;;;;;4955258;28;20027;-72
2023/10/17 14:50:26;;;;;;;14.15;8.93;;;12.10;99.90;;;;;;4966768;28;20078;-72
2023/10/17 14:52:53;;;;;;;15.18;8.90;;;12.10;99.90;;;;;;4972289;28;20553;-73
2023/10/17 14:55:23;;;;;;;13.23;8.70;;;12.10;99.90;;;;;;4957314;28;20638;-72
2023/10/17 14:57:49;;;;;;;15.10;9.32;;;12.00;99.90;;;;;;4952747;28;20090;-73
2023/10/17 15:00:16;;;;;;;14.27;9.40;;;12.00;99.90;;;;;;4954436;28;20027;-72
2023/10/17 15:02:44;;;;;;;13.15;9.43;;;12.00;99.90;;;;;;4971461;28;20030;-73
2023/10/17 15:05:12;;;;;;;14.43;8.90;;;11.90;99.90;;;;;;4968689;28;20026;-73
2023/10/17 15:07:39;;;;;;;15.13;9.25;;;11.90;99.90;;;;;;4968623;28;20024;-73
2023/10/17 15:10:13;;;;;;;13.52;8.88;;;11.90;99.90;;;;;;4968725;28;20110;-73
2023/10/17 15:12:44;;;;;;;16.33;8.93;;;11.90;99.90;;;;;;4966945;28;20099;-73
2023/10/17 15:15:11;;;;;;;13.43;8.50;;;11.80;99.90;;;;;;4966959;28;20026;-73
2023/10/17 15:17:38;;;;;;;16.17;8.63;;;11.80;99.90;;;;;;4970946;28;20033;-74
2023/10/17 15:20:05;;;;;;;12.70;8.90;;;11.70;99.90;;;;;;4971454;28;20549;-71
2023/10/17 15:22:31;;;;;;;15.43;9.27;;;11.70;99.90;;;;;;4966074;28;20023;-71
2023/10/17 15:24:58;;;;;;;14.65;9.27;;;11.60;99.90;;;;;;4969837;28;20063;-72